Wboro, Mississippi
Current Conditions -  °F | °C
As of 10:15 AM on Saturday 25 Oct 2014 (Local Time) from KPIB Reporting Station
Clear Clear  
Wind Chill: 70°   Ceiling: Unl
Heat Index: 70°   Visibility: 10mi
Dew Point: 54°   Wind: 7mph
Humidity: 56%   Direction: 30°NNE
Pressure: 30.18"   Gusts: NA
Location:  31.666°N, 88.7149°W
Report Text: KPIB 251515Z AUTO 03006KT 10SM CLR 21/12 A3018 RMK AO1
Loading
Personal Weather Stations






























Interactive Weather Map
Tropical Storm Tracking
New forecast layout! Learn more

10-Day Weather Forecast

Advertisements
Track Severe Weather on mobile